Time;durP1;ratioP1;P1;durP2;ratioP2;P2;SDS_P1;SDS_P2;PMS_P1;PMS_P2;Temp;Humidity;BMP_temperature;BMP_pressure;BME280_temperature;BME280_humidity;BME280_pressure;Samples;Min_cycle;Max_cycle;Signal;HPM_P1;HPM_P2
2023/02/01 00:01:26;;;;;;;3.00;2.80;;;3.60;84.20;;;;;;5051673;28;20313;-77
2023/02/01 00:03:53;;;;;;;2.88;2.67;;;3.60;84.20;;;;;;5053868;28;20921;-77
2023/02/01 00:06:20;;;;;;;3.20;3.00;;;3.50;84.40;;;;;;5034751;28;20226;-76
2023/02/01 00:08:47;;;;;;;3.00;2.80;;;3.60;84.60;;;;;;5049407;28;20294;-77
2023/02/01 00:11:14;;;;;;;3.38;3.17;;;3.60;84.20;;;;;;5051028;28;20249;-77
2023/02/01 00:13:43;;;;;;;3.50;3.30;;;3.60;84.10;;;;;;5046340;28;20231;-77
2023/02/01 00:16:14;;;;;;;3.05;2.83;;;3.60;84.10;;;;;;5032163;28;20218;-77
2023/02/01 00:18:41;;;;;;;3.30;3.10;;;3.60;84.90;;;;;;5049105;28;20677;-76
2023/02/01 00:21:08;;;;;;;2.92;2.80;;;3.50;85.10;;;;;;5033623;28;20297;-75
2023/02/01 00:23:36;;;;;;;3.08;2.88;;;3.60;85.30;;;;;;5031078;28;20205;-76
2023/02/01 00:26:05;;;;;;;3.25;3.05;;;3.50;84.60;;;;;;5041704;28;20329;-76
2023/02/01 00:28:32;;;;;;;3.15;2.95;;;3.50;84.40;;;;;;5055373;28;20289;-77
2023/02/01 00:31:02;;;;;;;3.15;2.92;;;3.50;84.80;;;;;;5028426;28;20211;-76
2023/02/01 00:33:31;;;;;;;2.95;2.80;;;3.40;85.30;;;;;;5033927;28;20305;-77
2023/02/01 00:35:59;;;;;;;2.90;2.70;;;3.30;85.40;;;;;;5052278;28;20831;-77
2023/02/01 00:38:26;;;;;;;3.15;2.95;;;3.30;85.60;;;;;;5054165;28;20643;-77
2023/02/01 00:40:54;;;;;;;3.35;3.15;;;3.30;85.70;;;;;;5033161;28;20219;-76
2023/02/01 00:43:22;;;;;;;3.03;2.92;;;3.30;86.10;;;;;;5051826;28;20294;-76
2023/02/01 00:45:49;;;;;;;3.25;3.05;;;3.30;86.60;;;;;;5052546;28;20325;-76
2023/02/01 00:48:16;;;;;;;3.47;3.17;;;3.20;86.10;;;;;;5045312;28;22067;-74
2023/02/01 00:50:45;;;;;;;3.38;3.17;;;3.20;86.40;;;;;;5042340;28;20333;-76
2023/02/01 00:53:12;;;;;;;3.15;2.95;;;3.20;86.80;;;;;;5049814;28;20817;-76
2023/02/01 00:55:40;;;;;;;3.28;3.08;;;3.20;86.70;;;;;;5054979;28;20267;-76
2023/02/01 00:58:09;;;;;;;2.85;2.75;;;3.20;86.90;;;;;;5050283;28;20301;-76
2023/02/01 01:00:36;;;;;;;3.00;2.80;;;3.20;86.80;;;;;;5049134;28;20272;-76
2023/02/01 01:03:17;;;;;;;3.42;3.22;;;3.20;87.00;;;;;;5035932;28;20203;-76
2023/02/01 01:05:45;;;;;;;3.50;3.30;;;3.20;87.10;;;;;;5051621;28;20218;-76
2023/02/01 01:08:12;;;;;;;3.00;2.88;;;3.20;87.30;;;;;;5048853;28;20771;-76
2023/02/01 01:10:40;;;;;;;3.45;3.25;;;3.20;88.50;;;;;;5044662;28;20239;-76
2023/02/01 01:13:07;;;;;;;3.13;3.03;;;3.20;87.90;;;;;;5057819;28;20194;-76
2023/02/01 01:15:37;;;;;;;3.35;3.15;;;3.20;87.90;;;;;;5052711;28;20265;-76
2023/02/01 01:18:04;;;;;;;3.10;2.83;;;3.20;87.90;;;;;;5048480;28;20847;-76
2023/02/01 01:20:32;;;;;;;3.28;3.10;;;3.30;87.60;;;;;;5030763;28;20310;-76
2023/02/01 01:23:00;;;;;;;2.95;2.78;;;3.30;86.70;;;;;;5047621;28;20282;-76
2023/02/01 01:25:27;;;;;;;3.08;2.88;;;3.30;86.20;;;;;;5055118;28;20306;-76
2023/02/01 01:27:54;;;;;;;3.05;2.85;;;3.30;86.60;;;;;;5046910;28;20297;-76
2023/02/01 01:30:21;;;;;;;3.20;3.00;;;3.30;86.50;;;;;;5051495;28;20298;-75
2023/02/01 01:32:48;;;;;;;2.70;2.55;;;3.30;87.30;;;;;;5032284;28;20191;-75
2023/02/01 01:35:16;;;;;;;3.20;3.00;;;3.30;87.70;;;;;;5049126;28;20877;-75
2023/02/01 01:37:43;;;;;;;2.72;2.63;;;3.30;87.20;;;;;;5049877;28;20250;-76
2023/02/01 01:40:13;;;;;;;3.00;2.83;;;3.20;87.30;;;;;;5047532;28;20310;-76
2023/02/01 01:42:42;;;;;;;2.83;2.70;;;3.20;87.70;;;;;;5052331;28;20318;-76
2023/02/01 01:45:21;;;;;;;2.97;2.78;;;3.10;88.10;;;;;;5028373;28;20295;-75
2023/02/01 01:47:52;;;;;;;3.00;2.80;;;3.00;88.90;;;;;;5032943;28;20219;-76
2023/02/01 01:50:22;;;;;;;3.30;3.10;;;3.00;89.50;;;;;;5044393;28;20319;-76
2023/02/01 01:52:51;;;;;;;2.70;2.60;;;2.90;89.40;;;;;;5046835;28;20227;-75
2023/02/01 01:55:22;;;;;;;2.78;2.67;;;2.80;90.00;;;;;;5048774;28;20314;-76
2023/02/01 01:57:55;;;;;;;2.90;2.80;;;2.80;90.20;;;;;;5032166;28;20214;-76
2023/02/01 02:00:22;;;;;;;2.92;2.83;;;2.80;90.20;;;;;;5046159;28;20333;-76
2023/02/01 02:02:55;;;;;;;2.83;2.72;;;2.80;90.20;;;;;;5050861;28;20309;-76
2023/02/01 02:05:23;;;;;;;2.90;2.72;;;2.80;89.60;;;;;;5047078;28;20767;-76
2023/02/01 02:07:53;;;;;;;3.40;3.20;;;2.90;89.40;;;;;;5043329;28;20305;-76
2023/02/01 02:10:59;;;;;;;3.22;3.03;;;2.90;89.60;;;;;;5047898;28;20313;-76
2023/02/01 02:13:10;;;;;;;3.33;3.13;;;2.90;89.20;;;;;;5046096;28;20197;-76
2023/02/01 02:15:42;;;;;;;3.13;2.92;;;2.90;90.30;;;;;;5028982;28;20310;-76
2023/02/01 02:18:19;;;;;;;2.97;2.78;;;2.80;90.10;;;;;;5041523;28;20651;-76
2023/02/01 02:21:17;;;;;;;3.88;3.58;;;2.70;90.00;;;;;;5048379;28;20341;-76
2023/02/01 02:24:15;;;;;;;3.28;3.08;;;2.70;89.80;;;;;;5038538;28;20285;-77
2023/02/01 02:27:24;;;;;;;3.60;3.40;;;2.70;89.40;;;;;;5048919;28;20349;-76
2023/02/01 02:30:23;;;;;;;3.88;3.60;;;2.70;89.80;;;;;;5047238;28;20223;-75
2023/02/01 02:33:20;;;;;;;3.13;2.95;;;2.60;90.30;;;;;;5048656;28;20286;-74
2023/02/01 02:35:55;;;;;;;3.40;3.20;;;2.60;91.00;;;;;;5034520;28;20385;-75
2023/02/01 02:38:30;;;;;;;3.20;3.00;;;2.60;91.10;;;;;;5029213;28;20191;-75
2023/02/01 02:41:07;;;;;;;3.13;2.92;;;2.50;91.10;;;;;;5044746;28;20937;-76
2023/02/01 02:49:24;;;;;;;3.08;2.88;;;2.50;91.00;;;;;;5047756;28;20201;-75
2023/02/01 02:54:51;;;;;;;2.90;2.70;;;2.60;90.70;;;;;;5049155;28;20275;-76
2023/02/01 03:05:43;;;;;;;3.17;3.03;;;2.60;91.10;;;;;;5051561;28;20256;-75
2023/02/01 03:08:13;;;;;;;3.30;3.10;;;2.60;90.70;;;;;;5035096;28;20300;-75
2023/02/01 03:10:49;;;;;;;2.90;2.80;;;2.60;91.00;;;;;;5048429;28;20306;-75
2023/02/01 03:13:24;;;;;;;2.97;2.88;;;2.60;91.30;;;;;;5051887;28;20285;-75
2023/02/01 03:15:58;;;;;;;2.97;2.88;;;2.60;91.30;;;;;;5050533;28;20292;-76
2023/02/01 03:18:31;;;;;;;3.00;2.80;;;2.60;91.30;;;;;;5051023;28;20229;-75
2023/02/01 03:21:03;;;;;;;3.30;3.10;;;2.60;91.10;;;;;;5049682;28;20298;-74
2023/02/01 03:23:33;;;;;;;3.00;2.80;;;2.60;91.00;;;;;;5051489;28;20242;-73
2023/02/01 03:26:03;;;;;;;3.33;3.10;;;2.60;91.10;;;;;;5050569;28;20314;-75
2023/02/01 03:28:34;;;;;;;3.13;3.03;;;2.60;91.40;;;;;;5032584;28;20654;-73
2023/02/01 03:31:02;;;;;;;3.60;3.40;;;2.60;91.50;;;;;;5053813;28;20883;-76
2023/02/01 03:33:31;;;;;;;3.05;2.85;;;2.60;91.50;;;;;;5053913;28;20281;-76
2023/02/01 03:36:19;;;;;;;3.38;3.17;;;2.60;92.00;;;;;;5047829;28;20601;-76
2023/02/01 03:38:56;;;;;;;3.03;2.83;;;2.60;91.50;;;;;;5046043;28;20230;-75
2023/02/01 03:41:30;;;;;;;3.38;3.17;;;2.50;91.50;;;;;;5047289;28;20290;-75
2023/02/01 03:44:02;;;;;;;3.13;2.92;;;2.50;91.50;;;;;;5057484;28;20238;-75
2023/02/01 03:46:34;;;;;;;3.13;3.03;;;2.50;91.70;;;;;;5056655;28;20227;-76
2023/02/01 03:49:06;;;;;;;3.50;3.30;;;2.60;92.10;;;;;;5034066;28;20291;-76
2023/02/01 03:51:36;;;;;;;3.22;3.03;;;2.50;92.10;;;;;;5052180;28;20330;-76
2023/02/01 03:54:06;;;;;;;2.85;2.75;;;2.50;92.10;;;;;;5053568;28;20613;-76
2023/02/01 03:56:36;;;;;;;2.80;2.70;;;2.50;92.10;;;;;;5051918;28;20329;-76
2023/02/01 03:59:04;;;;;;;3.13;2.92;;;2.50;92.20;;;;;;5049817;28;20615;-76
2023/02/01 04:01:31;;;;;;;3.30;3.10;;;2.50;92.20;;;;;;5048137;28;21004;-76
2023/02/01 04:03:59;;;;;;;2.85;2.75;;;2.50;92.50;;;;;;5051987;28;20230;-74
2023/02/01 04:06:26;;;;;;;2.97;2.88;;;2.50;92.30;;;;;;5036671;28;20302;-74
2023/02/01 04:08:55;;;;;;;2.90;2.70;;;2.40;92.30;;;;;;5057856;28;20282;-76
2023/02/01 04:11:22;;;;;;;3.05;2.85;;;2.40;92.40;;;;;;5045281;28;20821;-76
2023/02/01 04:13:49;;;;;;;3.08;2.92;;;2.40;92.50;;;;;;5027283;28;20191;-76
2023/02/01 04:16:16;;;;;;;2.97;2.88;;;2.40;92.60;;;;;;5045448;28;20246;-76
2023/02/01 04:18:43;;;;;;;3.47;3.28;;;2.40;92.60;;;;;;5041091;28;20289;-76
2023/02/01 04:21:10;;;;;;;3.30;3.10;;;2.30;92.90;;;;;;5051340;28;20218;-76
2023/02/01 04:23:37;;;;;;;3.05;2.95;;;2.40;92.80;;;;;;5030326;28;20277;-76
2023/02/01 04:26:06;;;;;;;3.28;3.08;;;2.30;93.10;;;;;;5045626;28;20222;-76
2023/02/01 04:28:33;;;;;;;2.90;2.80;;;2.30;93.20;;;;;;5054473;28;20199;-76
2023/02/01 04:31:00;;;;;;;2.80;2.70;;;2.30;93.10;;;;;;5013566;28;20595;-74
2023/02/01 04:33:27;;;;;;;3.00;2.90;;;2.30;93.00;;;;;;5053722;28;20930;-76
2023/02/01 04:35:54;;;;;;;2.88;2.78;;;2.30;93.10;;;;;;5043587;28;20310;-75
2023/02/01 04:38:21;;;;;;;4.15;3.75;;;2.30;93.10;;;;;;5031693;28;20282;-73
2023/02/01 04:40:49;;;;;;;3.80;3.60;;;2.20;93.50;;;;;;5048999;28;20306;-74
2023/02/01 04:43:18;;;;;;;3.80;3.60;;;2.10;93.30;;;;;;5043891;28;20234;-76
2023/02/01 04:45:49;;;;;;;3.28;3.08;;;2.10;93.30;;;;;;5051238;28;20306;-75
2023/02/01 04:48:17;;;;;;;3.80;3.60;;;2.10;93.50;;;;;;5052604;28;20241;-75
2023/02/01 04:50:47;;;;;;;4.25;3.85;;;2.00;93.70;;;;;;5051560;28;20309;-76
2023/02/01 04:53:14;;;;;;;3.90;3.60;;;2.00;93.70;;;;;;5053157;28;20192;-75
2023/02/01 04:55:41;;;;;;;3.67;3.47;;;1.90;93.90;;;;;;5046095;28;20297;-73
2023/02/01 04:58:08;;;;;;;3.45;3.25;;;1.90;93.90;;;;;;5051267;28;20250;-75
2023/02/01 05:00:37;;;;;;;3.63;3.42;;;1.90;93.70;;;;;;5050873;28;20304;-73
2023/02/01 05:03:04;;;;;;;3.63;3.40;;;2.00;93.90;;;;;;5054238;28;20310;-75
2023/02/01 05:05:31;;;;;;;3.70;3.42;;;1.90;94.00;;;;;;5033111;28;20218;-75
2023/02/01 05:07:59;;;;;;;3.53;3.33;;;1.90;94.10;;;;;;5055717;28;20649;-75
2023/02/01 05:10:26;;;;;;;3.58;3.38;;;2.00;94.30;;;;;;5048704;28;20311;-75
2023/02/01 05:15:38;;;;;;;3.38;3.22;;;2.00;94.40;;;;;;5052577;28;20217;-75
2023/02/01 05:18:06;;;;;;;3.33;3.13;;;2.00;94.50;;;;;;5053748;28;20254;-76
2023/02/01 05:20:34;;;;;;;3.78;3.58;;;2.00;94.50;;;;;;5042756;28;20314;-75
2023/02/01 05:23:01;;;;;;;3.13;3.03;;;2.00;94.60;;;;;;5033680;28;21036;-76
2023/02/01 05:25:28;;;;;;;3.22;3.03;;;2.00;94.70;;;;;;5053961;28;20298;-75
2023/02/01 05:27:55;;;;;;;3.30;3.10;;;2.00;94.80;;;;;;5051798;28;20807;-76
2023/02/01 05:30:23;;;;;;;3.10;3.00;;;2.00;95.00;;;;;;5016285;28;20293;-75
2023/02/01 05:32:52;;;;;;;3.15;3.03;;;2.10;95.00;;;;;;5029735;28;20715;-76
2023/02/01 05:35:20;;;;;;;3.40;3.20;;;2.10;95.10;;;;;;5046814;28;20302;-76
2023/02/01 05:37:47;;;;;;;3.40;3.10;;;2.10;95.20;;;;;;5057169;28;20311;-76
2023/02/01 05:40:14;;;;;;;3.30;3.20;;;2.10;94.90;;;;;;5051153;28;20215;-75
2023/02/01 05:42:41;;;;;;;3.55;3.38;;;2.10;94.80;;;;;;5041030;28;20220;-75
2023/02/01 05:45:09;;;;;;;3.60;3.30;;;2.10;94.80;;;;;;5054774;28;20301;-75
2023/02/01 05:47:36;;;;;;;3.33;3.13;;;2.10;95.00;;;;;;5037083;28;20225;-76
2023/02/01 05:50:07;;;;;;;2.97;2.88;;;2.00;95.20;;;;;;5049154;28;20305;-76
2023/02/01 05:52:34;;;;;;;3.58;3.28;;;1.90;95.30;;;;;;5024632;28;20730;-76
2023/02/01 05:55:02;;;;;;;3.15;2.95;;;1.90;95.40;;;;;;5045413;28;20824;-75
2023/02/01 05:57:29;;;;;;;3.20;3.00;;;1.90;95.50;;;;;;5050897;28;20279;-76
2023/02/01 05:59:56;;;;;;;4.18;3.92;;;1.90;95.70;;;;;;5050616;28;20292;-76
2023/02/01 06:02:24;;;;;;;3.60;3.40;;;1.80;95.30;;;;;;5047456;28;20305;-76
2023/02/01 06:04:51;;;;;;;3.67;3.47;;;1.80;95.40;;;;;;5047681;28;20326;-75
2023/02/01 06:07:19;;;;;;;4.10;3.80;;;1.70;95.60;;;;;;5046063;28;20783;-76
2023/02/01 06:09:46;;;;;;;3.47;3.15;;;1.70;96.00;;;;;;5049432;28;20334;-76
2023/02/01 06:12:13;;;;;;;3.35;3.15;;;1.60;96.10;;;;;;5053331;28;20277;-75
2023/02/01 06:14:40;;;;;;;3.60;3.40;;;1.60;96.10;;;;;;5044639;28;20277;-75
2023/02/01 06:17:08;;;;;;;3.60;3.40;;;1.60;96.20;;;;;;5045190;28;20722;-76
2023/02/01 06:19:35;;;;;;;3.72;3.53;;;1.60;96.30;;;;;;5032706;28;20835;-75
2023/02/01 06:22:05;;;;;;;3.50;3.30;;;1.60;96.50;;;;;;5041830;28;20283;-76
2023/02/01 06:24:34;;;;;;;3.22;3.13;;;1.60;96.60;;;;;;5037936;28;20219;-75
2023/02/01 06:27:01;;;;;;;3.20;3.10;;;1.60;96.60;;;;;;5041941;28;20314;-76
2023/02/01 06:29:28;;;;;;;3.55;3.35;;;1.60;96.50;;;;;;5040991;28;20278;-76
2023/02/01 06:31:55;;;;;;;4.07;3.78;;;1.70;96.60;;;;;;5048868;28;20279;-76
2023/02/01 06:34:23;;;;;;;4.05;3.75;;;1.60;96.50;;;;;;5047462;28;20277;-76
2023/02/01 06:36:51;;;;;;;4.05;3.70;;;1.70;96.60;;;;;;5044037;28;20261;-76
2023/02/01 06:39:18;;;;;;;3.90;3.60;;;1.70;96.70;;;;;;5025316;28;20288;-76
2023/02/01 06:41:48;;;;;;;3.85;3.65;;;1.60;96.60;;;;;;5041555;28;20282;-75
2023/02/01 06:44:15;;;;;;;3.92;3.72;;;1.60;96.90;;;;;;5052394;28;20302;-75
2023/02/01 06:46:42;;;;;;;3.60;3.40;;;1.60;97.10;;;;;;5045761;28;20317;-75
2023/02/01 06:49:09;;;;;;;3.50;3.30;;;1.60;97.10;;;;;;5034617;28;20278;-77
2023/02/01 06:51:37;;;;;;;3.15;2.95;;;1.60;97.10;;;;;;5022980;28;20202;-75
2023/02/01 06:54:04;;;;;;;4.10;3.88;;;1.60;97.00;;;;;;5046785;28;20286;-75
2023/02/01 06:56:32;;;;;;;3.80;3.53;;;1.60;97.10;;;;;;5025657;28;20318;-76
2023/02/01 06:59:01;;;;;;;3.50;3.30;;;1.60;97.20;;;;;;5042359;28;20208;-77
2023/02/01 07:01:28;;;;;;;3.90;3.70;;;1.50;97.20;;;;;;5042994;28;20704;-75
2023/02/01 07:03:56;;;;;;;3.70;3.50;;;1.60;97.20;;;;;;5047581;28;20313;-76
2023/02/01 07:06:23;;;;;;;3.55;3.35;;;1.60;97.30;;;;;;5049811;28;20230;-77
2023/02/01 07:08:50;;;;;;;3.20;3.08;;;1.60;97.10;;;;;;5051788;28;20286;-77
2023/02/01 07:11:18;;;;;;;3.53;3.33;;;1.60;97.10;;;;;;5047478;28;20298;-77
2023/02/01 07:13:46;;;;;;;3.72;3.42;;;1.70;97.40;;;;;;5031314;28;20760;-77
2023/02/01 07:16:19;;;;;;;3.65;3.45;;;1.70;97.90;;;;;;5041141;28;20314;-77
2023/02/01 07:18:46;;;;;;;3.55;3.35;;;1.70;98.10;;;;;;5049444;28;20285;-77
2023/02/01 07:21:14;;;;;;;3.33;3.13;;;1.70;98.10;;;;;;5026341;28;20223;-75
2023/02/01 07:23:42;;;;;;;3.50;3.30;;;1.70;97.80;;;;;;5041756;28;20313;-77
2023/02/01 07:26:12;;;;;;;3.80;3.60;;;1.80;97.70;;;;;;5037937;28;20310;-77
2023/02/01 07:28:39;;;;;;;3.55;3.35;;;1.80;97.50;;;;;;5029706;28;20202;-77
2023/02/01 07:31:07;;;;;;;3.13;2.90;;;1.80;97.60;;;;;;5044164;28;20306;-76
2023/02/01 07:33:36;;;;;;;3.40;3.30;;;1.90;97.60;;;;;;5045477;28;20492;-77
2023/02/01 07:36:05;;;;;;;3.25;3.05;;;1.90;98.30;;;;;;5045596;28;20242;-77
2023/02/01 07:38:33;;;;;;;3.83;3.55;;;1.90;98.10;;;;;;5040720;28;20194;-77
2023/02/01 07:41:01;;;;;;;3.75;3.55;;;1.90;97.80;;;;;;5044572;28;20227;-77
2023/02/01 07:43:29;;;;;;;3.42;3.28;;;1.90;97.60;;;;;;5049291;28;20300;-77
2023/02/01 07:45:57;;;;;;;3.75;3.55;;;2.00;97.70;;;;;;5050539;28;20253;-77
2023/02/01 07:48:25;;;;;;;4.03;3.80;;;2.00;97.80;;;;;;5047720;28;20278;-77
2023/02/01 07:50:59;;;;;;;3.72;3.53;;;2.00;98.10;;;;;;5045295;28;20679;-77
2023/02/01 07:53:27;;;;;;;3.42;3.22;;;2.30;98.30;;;;;;5045659;28;20187;-75
2023/02/01 07:55:55;;;;;;;5.30;4.95;;;3.10;98.10;;;;;;5046892;28;20322;-77
2023/02/01 07:58:23;;;;;;;5.95;5.55;;;3.80;97.10;;;;;;5051392;28;20191;-76
2023/02/01 08:03:34;;;;;;;4.95;4.55;;;5.40;97.20;;;;;;5047413;28;20360;-76
2023/02/01 08:06:04;;;;;;;6.32;5.82;;;6.40;99.00;;;;;;5038981;28;20313;-75
2023/02/01 08:08:31;;;;;;;6.00;5.45;;;7.20;95.10;;;;;;5049342;28;20198;-76
2023/02/01 08:10:59;;;;;;;4.82;4.30;;;7.80;93.80;;;;;;5042583;28;20322;-76
2023/02/01 08:13:27;;;;;;;4.35;4.05;;;8.50;93.00;;;;;;5028911;28;20187;-76
2023/02/01 08:15:58;;;;;;;3.53;3.22;;;9.00;92.10;;;;;;5049635;28;20265;-73
2023/02/01 08:18:25;;;;;;;3.47;3.28;;;9.60;91.40;;;;;;5044276;28;20302;-73
2023/02/01 08:20:52;;;;;;;9.48;3.92;;;10.00;90.70;;;;;;5026358;28;20314;-74
2023/02/01 08:23:21;;;;;;;4.38;4.07;;;10.10;89.50;;;;;;5042239;28;20247;-76
2023/02/01 08:25:48;;;;;;;3.97;3.75;;;10.20;89.70;;;;;;5041161;28;20340;-74
2023/02/01 08:28:15;;;;;;;3.80;3.50;;;10.50;89.10;;;;;;5045310;28;20658;-76
2023/02/01 08:30:43;;;;;;;4.28;3.70;;;10.70;88.10;;;;;;5041252;28;20318;-76
2023/02/01 08:33:11;;;;;;;4.32;4.03;;;10.90;86.70;;;;;;5041199;28;20194;-76
2023/02/01 08:35:39;;;;;;;4.47;4.07;;;11.20;87.00;;;;;;5045331;28;20224;-75
2023/02/01 08:38:07;;;;;;;5.50;3.85;;;11.50;86.70;;;;;;5045545;28;20305;-76
2023/02/01 08:40:35;;;;;;;4.40;3.97;;;11.60;86.80;;;;;;5043098;28;20298;-76
2023/02/01 08:43:02;;;;;;;3.72;3.42;;;11.80;86.50;;;;;;5046251;28;20319;-76
2023/02/01 08:45:30;;;;;;;4.20;3.80;;;12.20;87.10;;;;;;5041213;28;20295;-76
2023/02/01 08:47:58;;;;;;;4.93;3.63;;;12.50;85.10;;;;;;5051613;28;20695;-75
2023/02/01 08:50:26;;;;;;;4.05;3.67;;;12.60;84.80;;;;;;5044733;28;20302;-77
2023/02/01 08:52:54;;;;;;;3.88;3.30;;;12.80;85.00;;;;;;5039425;28;20610;-77
2023/02/01 08:55:21;;;;;;;4.30;3.08;;;13.00;83.70;;;;;;5035831;28;20296;-75
2023/02/01 08:57:49;;;;;;;2.95;2.70;;;13.20;83.40;;;;;;5050159;28;20255;-75
2023/02/01 09:00:18;;;;;;;3.47;3.00;;;13.30;82.10;;;;;;5044769;28;20305;-75
2023/02/01 09:02:46;;;;;;;3.55;3.25;;;13.50;80.30;;;;;;5022068;28;20199;-77
2023/02/01 09:05:16;;;;;;;4.07;3.45;;;13.60;81.00;;;;;;5047839;28;20430;-76
2023/02/01 09:07:43;;;;;;;6.85;4.03;;;13.80;81.00;;;;;;5036607;28;20296;-76
2023/02/01 09:10:11;;;;;;;5.53;3.85;;;13.70;81.80;;;;;;5049660;28;20393;-75
2023/02/01 09:12:39;;;;;;;4.55;4.15;;;13.50;80.70;;;;;;5048036;28;20222;-77
2023/02/01 09:15:09;;;;;;;4.40;3.75;;;13.20;80.40;;;;;;5034067;28;20289;-74
2023/02/01 09:17:36;;;;;;;4.35;3.58;;;12.90;81.00;;;;;;5040801;28;20313;-75
2023/02/01 09:20:04;;;;;;;5.28;3.95;;;12.70;82.30;;;;;;5029934;28;20219;-74
2023/02/01 09:22:31;;;;;;;3.40;3.10;;;12.10;82.00;;;;;;5046603;28;20297;-78
2023/02/01 09:24:58;;;;;;;4.18;3.78;;;11.60;82.50;;;;;;5044624;28;20318;-75
2023/02/01 09:27:25;;;;;;;4.00;3.60;;;11.70;83.30;;;;;;5058132;28;20242;-74
2023/02/01 09:29:53;;;;;;;3.50;3.17;;;12.10;83.20;;;;;;5035755;28;20816;-76
2023/02/01 09:32:22;;;;;;;4.82;4.05;;;12.80;83.00;;;;;;5047638;28;20195;-76
2023/02/01 09:34:50;;;;;;;5.45;3.88;;;13.40;81.50;;;;;;5044082;28;20313;-74
2023/02/01 09:37:17;;;;;;;5.13;3.97;;;14.10;79.00;;;;;;5021898;28;20434;-75
2023/02/01 09:39:44;;;;;;;5.90;4.28;;;15.30;75.00;;;;;;5044300;28;20311;-74
2023/02/01 09:42:26;;;;;;;4.13;3.72;;;17.00;70.40;;;;;;5041535;28;20293;-74
2023/02/01 09:45:06;;;;;;;5.10;3.65;;;18.20;64.00;;;;;;5043430;28;20310;-75
2023/02/01 09:47:41;;;;;;;5.90;3.28;;;18.70;62.40;;;;;;5045826;28;20875;-76
2023/02/01 09:50:16;;;;;;;5.47;3.58;;;18.30;61.80;;;;;;5046740;28;20225;-77
2023/02/01 09:52:49;;;;;;;4.78;4.18;;;17.20;63.60;;;;;;5041359;28;20210;-78
2023/02/01 09:55:20;;;;;;;5.68;4.03;;;16.10;67.10;;;;;;5049065;28;20246;-77
2023/02/01 09:57:54;;;;;;;5.03;3.72;;;15.20;70.50;;;;;;5048059;28;20329;-75
2023/02/01 10:00:25;;;;;;;4.38;3.60;;;14.80;73.00;;;;;;5050557;28;20265;-76
2023/02/01 10:02:56;;;;;;;7.35;4.45;;;14.40;73.30;;;;;;5045674;28;20286;-77
2023/02/01 10:05:52;;;;;;;5.72;4.32;;;13.50;76.40;;;;;;5053411;28;20885;-78
2023/02/01 10:08:27;;;;;;;6.75;4.10;;;12.90;77.90;;;;;;5044910;28;20653;-76
2023/02/01 10:11:04;;;;;;;7.28;4.03;;;13.10;79.60;;;;;;5047880;28;20242;-77
2023/02/01 10:13:49;;;;;;;4.25;3.78;;;13.60;79.70;;;;;;5047731;28;20229;-76
2023/02/01 10:16:26;;;;;;;4.22;3.63;;;13.60;75.50;;;;;;5046504;28;20317;-76
2023/02/01 10:19:18;;;;;;;3.78;3.47;;;13.50;75.50;;;;;;5027716;28;20279;-76
2023/02/01 10:21:55;;;;;;;6.72;4.20;;;13.40;75.90;;;;;;5044063;28;20269;-77
2023/02/01 10:24:43;;;;;;;4.45;4.05;;;13.20;77.70;;;;;;5027150;28;20237;-77
2023/02/01 10:27:15;;;;;;;6.88;3.25;;;13.30;82.10;;;;;;5047965;28;20257;-76
2023/02/01 10:29:45;;;;;;;4.30;3.90;;;13.50;81.70;;;;;;5043758;28;20299;-79
2023/02/01 10:32:16;;;;;;;8.40;3.42;;;13.50;78.00;;;;;;5047555;28;20306;-78
2023/02/01 10:34:48;;;;;;;4.43;3.58;;;14.20;80.30;;;;;;5042658;28;20230;-72
2023/02/01 10:37:28;;;;;;;4.10;3.70;;;14.40;77.00;;;;;;5043748;28;20309;-76
2023/02/01 10:39:58;;;;;;;6.55;3.88;;;13.70;75.30;;;;;;5046174;28;20313;-75
2023/02/01 10:42:28;;;;;;;4.90;3.60;;;12.80;76.00;;;;;;5047638;28;20194;-77
2023/02/01 10:44:59;;;;;;;4.30;3.40;;;12.20;79.00;;;;;;5045241;28;20309;-76
2023/02/01 10:47:26;;;;;;;3.88;3.35;;;12.40;81.50;;;;;;5041988;28;20333;-77
2023/02/01 10:50:00;;;;;;;4.60;3.30;;;13.20;81.30;;;;;;5048147;28;20309;-77
2023/02/01 10:52:37;;;;;;;5.70;3.28;;;13.90;81.10;;;;;;5042809;28;20283;-76
2023/02/01 10:55:38;;;;;;;5.72;4.13;;;14.80;79.30;;;;;;5046408;28;20678;-75
2023/02/01 10:58:06;;;;;;;4.78;3.75;;;15.30;77.30;;;;;;5027183;28;20217;-77
2023/02/01 11:00:45;;;;;;;4.15;3.33;;;15.00;75.00;;;;;;5048150;28;20246;-77
2023/02/01 11:03:42;;;;;;;5.30;3.40;;;14.40;75.50;;;;;;5041961;28;20275;-77
2023/02/01 11:06:20;;;;;;;3.90;3.55;;;14.10;76.60;;;;;;5033313;28;20226;-77
2023/02/01 11:08:49;;;;;;;3.33;3.03;;;13.90;77.70;;;;;;5029316;28;20759;-77
2023/02/01 11:11:16;;;;;;;4.47;3.78;;;14.20;78.90;;;;;;5026179;28;20360;-77
2023/02/01 11:13:44;;;;;;;5.13;4.30;;;14.70;77.20;;;;;;5044010;28;20293;-75
2023/02/01 11:16:15;;;;;;;5.22;4.38;;;14.50;76.90;;;;;;5043303;28;20281;-76
2023/02/01 11:18:42;;;;;;;5.15;3.60;;;14.40;77.00;;;;;;5049078;28;20230;-77
2023/02/01 11:21:11;;;;;;;4.90;4.07;;;14.50;78.30;;;;;;5043114;28;20341;-78
2023/02/01 11:23:45;;;;;;;4.05;3.75;;;14.60;77.20;;;;;;5047996;28;20229;-75
2023/02/01 11:26:15;;;;;;;4.55;3.70;;;14.80;78.30;;;;;;5028737;28;20221;-74
2023/02/01 11:28:52;;;;;;;5.00;4.10;;;15.10;78.30;;;;;;5046789;28;20298;-78
2023/02/01 11:31:20;;;;;;;4.57;4.10;;;14.90;77.90;;;;;;5046064;28;20333;-76
2023/02/01 11:33:53;;;;;;;4.95;3.70;;;14.90;78.30;;;;;;5049010;28;20222;-76
2023/02/01 11:36:25;;;;;;;4.15;3.25;;;14.80;78.00;;;;;;5053101;28;20242;-77
2023/02/01 11:39:07;;;;;;;5.30;3.10;;;14.90;77.40;;;;;;5045752;28;20668;-76
2023/02/01 11:41:35;;;;;;;3.38;3.08;;;14.70;77.40;;;;;;5033911;28;20237;-77
2023/02/01 11:44:16;;;;;;;5.45;3.13;;;14.40;76.30;;;;;;5048773;28;20211;-76
2023/02/01 11:46:44;;;;;;;4.07;3.50;;;14.60;78.70;;;;;;5046903;28;21326;-78
2023/02/01 11:49:22;;;;;;;3.97;3.30;;;14.90;77.70;;;;;;5049472;28;20202;-79
2023/02/01 11:52:00;;;;;;;5.03;3.45;;;14.80;75.00;;;;;;5050756;28;20274;-78
2023/02/01 11:54:40;;;;;;;4.18;2.63;;;14.80;77.30;;;;;;5048558;28;20325;-75
2023/02/01 11:57:28;;;;;;;4.07;3.25;;;15.00;76.40;;;;;;5044141;28;20477;-75
2023/02/01 12:00:08;;;;;;;3.80;3.40;;;14.60;76.40;;;;;;5041077;28;20318;-75
2023/02/01 12:02:53;;;;;;;4.63;3.78;;;14.50;77.70;;;;;;5041961;28;20198;-75
2023/02/01 12:05:31;;;;;;;4.03;3.00;;;14.70;76.60;;;;;;5044932;28;20317;-77
2023/02/01 12:08:22;;;;;;;3.85;3.45;;;14.90;77.40;;;;;;5047822;28;20859;-77
2023/02/01 12:11:05;;;;;;;4.60;3.35;;;14.70;76.60;;;;;;5045970;28;20309;-77
2023/02/01 12:13:47;;;;;;;4.70;3.35;;;14.70;76.80;;;;;;5033650;28;20221;-77
2023/02/01 12:16:24;;;;;;;3.58;3.25;;;14.70;77.00;;;;;;5047495;28;20301;-74
2023/02/01 12:19:25;;;;;;;4.53;3.08;;;14.90;76.60;;;;;;5044945;28;20489;-76
2023/02/01 12:22:04;;;;;;;4.18;2.90;;;15.30;76.50;;;;;;5047124;28;20313;-77
2023/02/01 12:24:49;;;;;;;3.05;2.70;;;15.30;75.00;;;;;;5045812;28;20306;-76
2023/02/01 12:27:35;;;;;;;3.70;3.28;;;15.10;75.40;;;;;;5043008;28;20305;-76
2023/02/01 12:30:25;;;;;;;3.40;2.50;;;14.80;74.30;;;;;;5031873;28;20221;-77
2023/02/01 12:33:05;;;;;;;2.42;2.22;;;14.50;74.60;;;;;;5045755;28;20660;-76
2023/02/01 12:35:52;;;;;;;3.13;2.75;;;14.40;76.60;;;;;;5044150;28;20768;-77
2023/02/01 12:38:40;;;;;;;3.25;3.00;;;14.40;74.70;;;;;;5033776;28;20238;-77
2023/02/01 12:41:28;;;;;;;3.25;2.60;;;14.10;75.50;;;;;;5030051;28;20329;-77
2023/02/01 12:43:59;;;;;;;3.50;3.17;;;13.90;76.70;;;;;;5044226;28;20294;-76
2023/02/01 12:46:32;;;;;;;2.92;2.63;;;14.00;76.60;;;;;;5045976;28;20345;-77
2023/02/01 12:49:02;;;;;;;3.00;2.53;;;13.80;76.40;;;;;;5048199;28;20195;-77
2023/02/01 12:51:34;;;;;;;3.17;2.88;;;13.60;76.50;;;;;;5035898;28;20783;-77
2023/02/01 12:54:05;;;;;;;3.47;2.50;;;13.60;76.60;;;;;;5027279;28;20192;-77
2023/02/01 12:56:38;;;;;;;3.10;2.83;;;13.60;76.80;;;;;;5049196;28;20662;-77
2023/02/01 12:59:14;;;;;;;4.05;2.50;;;13.40;76.70;;;;;;5027327;28;20195;-77
2023/02/01 13:01:45;;;;;;;2.67;2.42;;;13.30;76.50;;;;;;5043740;28;20747;-77
2023/02/01 13:04:18;;;;;;;3.15;2.85;;;13.40;77.30;;;;;;5043986;28;20262;-77
2023/02/01 13:06:52;;;;;;;2.80;2.60;;;13.80;78.80;;;;;;5042646;28;20302;-77
2023/02/01 13:09:26;;;;;;;2.83;2.60;;;14.10;77.40;;;;;;5042386;28;20198;-76
2023/02/01 13:11:59;;;;;;;3.08;2.78;;;14.40;77.40;;;;;;5050815;28;20286;-77
2023/02/01 13:14:38;;;;;;;3.63;2.72;;;14.50;77.70;;;;;;5046453;28;20210;-77
2023/02/01 13:17:09;;;;;;;3.95;2.70;;;14.30;76.00;;;;;;5044890;28;20314;-76
2023/02/01 13:19:46;;;;;;;3.45;2.72;;;13.90;76.30;;;;;;5026204;28;20218;-76
2023/02/01 13:22:18;;;;;;;3.60;2.88;;;13.80;77.90;;;;;;5048557;28;20202;-76
2023/02/01 13:24:49;;;;;;;2.78;2.58;;;13.90;78.80;;;;;;5050121;28;20218;-77
2023/02/01 13:27:19;;;;;;;2.60;2.40;;;14.20;79.40;;;;;;5040211;28;20242;-77
2023/02/01 13:29:55;;;;;;;3.25;2.58;;;14.50;77.40;;;;;;5044899;28;20306;-75
2023/02/01 13:33:01;;;;;;;3.35;2.70;;;14.40;76.00;;;;;;5048313;28;20277;-73
2023/02/01 13:36:02;;;;;;;3.33;2.90;;;14.10;76.10;;;;;;5028115;28;20483;-75
2023/02/01 13:38:51;;;;;;;3.72;2.53;;;13.50;75.50;;;;;;5015798;28;20618;-74